Accueil
METAR-TAF:

METAR-TAF

Aéroports :

Base aérienne 709 Cognac-Châteaubernard

Cognac, France

latitude: 45-40N, longitude: 000-19W, altitude: 30 m

Observation

Le bulletin a été fait il y a 24 minutes, à 19:00 UTC
Vent 8 kt de nord
Température 16°C
Humidité 77%
Pression 1022 hPa
Visibilité 10 km ou plus
pas de nuages en-dessous de 1500 mètres et pas de cumulonimbus.

METAR: LFBG 191900Z AUTO 01008KT CAVOK 16/12 Q1022

Heure: 21:24 (19:24 UTC)

Prévision

Le bulletin a été fait il y a 11 heures et 24 minutes, à 08:00 UTC
Prévision valable du 19 à 09 UTC au 20 à 09 UTC
Vent 10 kt de nord/nord-est
Visibilité: 3000 m
Nuages fragmentés à une hauteur de 500 ft
brume
Evoluant progressivement
du 19 à 09 UTC au 19 à 10 UTC
Visibilité: 8000 m

TAF: LFBG 190800Z 1909/2009 03010KT 3000 BR BKN005 BECMG 1909/1910 8000 NSW NSC

Observations et prévisions météorologiques de plus de 4000 aéroports (messages METAR et TAF).

Les stations disponibles sont représentées par des disques jaunes et rouges sur la carte.

Passer la souris dessus pour voir le nom de la station.

Cliquer dessus pour voir les observations et prévisions météorologiques.

Pour changer de carte: cliquez sur les boutons verts avec une croix noire pour zoomer, sur le bouton vert avec un tiret pour effectuer un zoom arrière, ou sur les flèches vertes pour les cartes adjacentes.


METAR-TAF: